Time;durP1;ratioP1;P1;durP2;ratioP2;P2;SDS_P1;SDS_P2;PMS_P1;PMS_P2;Temp;Humidity;BMP_temperature;BMP_pressure;BME280_temperature;BME280_humidity;BME280_pressure;Samples;Min_cycle;Max_cycle;Signal;HPM_P1;HPM_P2
2022/05/02 00:01:49;;;;;;;20.70;17.13;;;8.70;99.90;;;;;;5023458;28;20294;-72
2022/05/02 00:04:16;;;;;;;22.02;18.02;;;8.70;99.90;;;;;;5021610;28;20232;-73
2022/05/02 00:06:44;;;;;;;23.33;19.05;;;8.70;99.90;;;;;;5029840;28;20200;-75
2022/05/02 00:09:11;;;;;;;20.08;17.98;;;8.70;99.90;;;;;;5037036;28;20191;-74
2022/05/02 00:11:38;;;;;;;22.25;17.65;;;8.60;99.90;;;;;;5036904;28;20246;-76
2022/05/02 00:14:05;;;;;;;20.90;17.02;;;8.50;99.90;;;;;;5037202;28;20236;-75
2022/05/02 00:16:32;;;;;;;20.00;17.30;;;8.50;99.90;;;;;;5037172;28;20188;-74
2022/05/02 00:18:59;;;;;;;21.33;18.27;;;8.50;99.90;;;;;;5036530;28;20208;-75
2022/05/02 00:21:25;;;;;;;22.08;18.63;;;8.50;99.90;;;;;;5036555;28;20235;-75
2022/05/02 00:23:54;;;;;;;22.92;18.42;;;8.50;99.90;;;;;;5035699;28;20250;-74
2022/05/02 00:26:20;;;;;;;21.02;17.90;;;8.50;99.90;;;;;;5034708;28;20195;-75
2022/05/02 00:28:48;;;;;;;18.42;16.45;;;8.40;99.90;;;;;;5033346;28;20291;-75
2022/05/02 00:31:15;;;;;;;21.02;18.00;;;8.40;99.90;;;;;;5027002;28;20228;-73
2022/05/02 00:33:41;;;;;;;19.08;16.75;;;8.30;99.90;;;;;;5015658;28;20224;-74
2022/05/02 00:36:08;;;;;;;19.67;16.60;;;8.30;99.90;;;;;;5015107;28;20212;-74
2022/05/02 00:38:35;;;;;;;21.23;17.25;;;8.20;99.90;;;;;;5014542;28;20605;-74
2022/05/02 00:41:04;;;;;;;20.70;17.38;;;8.20;99.90;;;;;;5013427;28;20203;-74
2022/05/02 00:43:30;;;;;;;22.63;17.00;;;8.20;99.90;;;;;;5012784;28;20266;-74
2022/05/02 00:45:57;;;;;;;24.42;16.42;;;8.10;99.90;;;;;;5012929;28;20207;-74
2022/05/02 00:48:24;;;;;;;21.45;18.27;;;8.10;99.90;;;;;;4993695;28;20216;-76
2022/05/02 00:50:51;;;;;;;22.45;17.90;;;8.10;99.90;;;;;;4992833;28;20311;-73
2022/05/02 00:53:20;;;;;;;23.23;17.42;;;8.10;99.90;;;;;;5011139;28;20310;-74
2022/05/02 00:55:47;;;;;;;22.77;17.95;;;8.10;99.90;;;;;;5012007;28;20208;-74
2022/05/02 00:58:17;;;;;;;20.35;18.02;;;8.00;99.90;;;;;;5012291;28;20703;-74
2022/05/02 01:00:44;;;;;;;18.83;16.83;;;8.00;99.90;;;;;;5014843;28;20236;-75
2022/05/02 01:03:13;;;;;;;22.30;18.10;;;7.90;99.90;;;;;;5015997;28;20235;-75
2022/05/02 01:07:08;;;;;;;23.02;18.38;;;7.90;99.90;;;;;;5016134;28;20682;-75
2022/05/02 01:08:29;;;;;;;20.02;17.52;;;8.00;99.90;;;;;;5015749;28;20208;-74
2022/05/02 01:10:57;;;;;;;18.77;16.15;;;7.90;99.90;;;;;;5015754;28;20226;-74
2022/05/02 01:13:38;;;;;;;20.88;16.50;;;7.80;99.90;;;;;;5016207;28;20738;-74
2022/05/02 01:16:10;;;;;;;22.00;16.70;;;7.80;99.90;;;;;;5015956;28;20277;-74
2022/05/02 01:18:37;;;;;;;19.17;16.63;;;7.70;99.90;;;;;;5015812;28;20208;-75
2022/05/02 01:21:09;;;;;;;20.95;16.55;;;7.70;99.90;;;;;;5015496;28;20211;-75
2022/05/02 01:23:36;;;;;;;22.02;16.77;;;7.80;99.90;;;;;;5015960;28;20232;-75
2022/05/02 01:26:03;;;;;;;19.20;15.93;;;7.80;99.90;;;;;;5015674;28;20649;-74
2022/05/02 01:28:30;;;;;;;21.52;16.63;;;7.80;99.90;;;;;;5015231;28;20212;-74
2022/05/02 01:30:57;;;;;;;19.98;16.92;;;7.80;99.90;;;;;;5015534;28;20314;-75
2022/05/02 01:33:24;;;;;;;20.60;16.63;;;7.80;99.90;;;;;;5015754;28;20231;-75
2022/05/02 01:35:51;;;;;;;19.25;15.75;;;7.80;99.90;;;;;;5015611;28;20207;-75
2022/05/02 01:38:19;;;;;;;21.48;16.25;;;7.80;99.90;;;;;;5015558;28;20291;-74
2022/05/02 01:40:46;;;;;;;18.85;15.93;;;7.70;99.90;;;;;;5015496;28;20224;-74
2022/05/02 01:43:12;;;;;;;19.48;15.75;;;7.70;99.90;;;;;;5015970;28;20690;-74
2022/05/02 01:45:39;;;;;;;19.50;15.95;;;7.70;99.90;;;;;;5015559;28;20218;-75
2022/05/02 01:48:07;;;;;;;18.88;16.10;;;7.80;99.90;;;;;;5015502;28;20204;-75
2022/05/02 01:50:34;;;;;;;20.05;16.30;;;7.80;99.90;;;;;;5015976;28;20558;-74
2022/05/02 01:53:01;;;;;;;21.58;15.82;;;7.80;99.90;;;;;;5017233;28;20196;-75
2022/05/02 01:55:29;;;;;;;21.70;16.05;;;7.90;99.90;;;;;;5016684;28;20204;-75
2022/05/02 01:57:56;;;;;;;21.48;16.60;;;7.90;99.90;;;;;;5015807;28;20303;-75
2022/05/02 02:00:23;;;;;;;19.65;15.73;;;7.90;99.90;;;;;;5015199;28;20215;-74
2022/05/02 02:02:49;;;;;;;22.35;17.63;;;7.80;99.90;;;;;;5015295;28;20226;-75
2022/05/02 02:08:01;;;;;;;19.95;15.93;;;7.80;99.90;;;;;;5015980;28;20206;-75
2022/05/02 02:10:29;;;;;;;21.27;15.35;;;7.70;99.90;;;;;;5014816;28;20196;-76
2022/05/02 02:12:56;;;;;;;19.80;15.93;;;7.70;99.90;;;;;;5015280;28;20216;-76
2022/05/02 02:15:23;;;;;;;19.67;16.33;;;7.70;99.90;;;;;;5015206;28;20573;-76
2022/05/02 02:17:50;;;;;;;18.98;15.95;;;7.60;99.90;;;;;;5015197;28;20203;-75
2022/05/02 02:20:17;;;;;;;20.65;16.25;;;7.60;99.90;;;;;;5014872;28;20207;-76
2022/05/02 02:22:44;;;;;;;20.77;16.45;;;7.50;99.90;;;;;;5014970;28;20208;-75
2022/05/02 02:25:11;;;;;;;21.90;17.48;;;7.50;99.90;;;;;;5015712;28;20308;-75
2022/05/02 02:27:40;;;;;;;19.48;15.30;;;7.40;99.90;;;;;;5015408;28;20304;-74
2022/05/02 02:30:08;;;;;;;21.30;16.05;;;7.40;99.90;;;;;;5014421;28;20210;-75
2022/05/02 02:32:35;;;;;;;23.60;16.98;;;7.30;99.90;;;;;;5014969;28;20239;-75
2022/05/02 02:35:01;;;;;;;25.50;18.60;;;7.30;99.90;;;;;;5015014;28;20247;-76
2022/05/02 02:37:28;;;;;;;17.08;15.00;;;7.30;99.90;;;;;;5014912;28;20298;-75
2022/05/02 02:39:55;;;;;;;27.23;16.95;;;7.20;99.90;;;;;;5015229;28;20210;-75
2022/05/02 02:42:23;;;;;;;22.25;16.77;;;7.10;99.90;;;;;;5015677;28;20218;-75
2022/05/02 02:44:52;;;;;;;20.85;16.98;;;7.10;99.90;;;;;;5014587;28;20259;-75
2022/05/02 02:47:19;;;;;;;21.25;18.25;;;7.00;99.90;;;;;;5014549;28;20199;-75
2022/05/02 02:49:46;;;;;;;26.55;19.02;;;7.00;99.90;;;;;;5014283;28;20210;-75
2022/05/02 02:52:12;;;;;;;26.10;18.98;;;6.90;99.90;;;;;;5014001;28;20231;-75
2022/05/02 02:54:39;;;;;;;26.92;19.58;;;6.90;99.90;;;;;;5014179;28;20270;-75
2022/05/02 02:57:06;;;;;;;27.50;19.00;;;6.90;99.90;;;;;;5015142;28;20207;-75
2022/05/02 02:59:34;;;;;;;24.35;17.45;;;6.90;99.90;;;;;;5014360;28;20218;-75
2022/05/02 03:02:10;;;;;;;22.45;17.00;;;7.00;99.90;;;;;;5015394;28;20210;-75
2022/05/02 03:07:28;;;;;;;23.73;18.27;;;7.00;99.90;;;;;;5014344;28;20210;-75
2022/05/02 03:09:57;;;;;;;23.83;18.65;;;6.90;99.90;;;;;;5013534;28;20212;-74
2022/05/02 03:12:24;;;;;;;26.77;19.38;;;6.80;99.90;;;;;;5013850;28;20234;-74
2022/05/02 03:14:51;;;;;;;23.17;16.80;;;6.80;99.90;;;;;;5014295;28;20236;-74
2022/05/02 03:17:19;;;;;;;22.88;17.92;;;6.80;99.90;;;;;;5014344;28;20204;-74
2022/05/02 03:19:46;;;;;;;25.45;19.25;;;6.80;99.90;;;;;;5013372;28;20200;-75
2022/05/02 03:22:13;;;;;;;24.05;17.55;;;6.80;99.90;;;;;;5013455;28;20210;-74
2022/05/02 03:24:40;;;;;;;24.08;17.50;;;6.80;99.90;;;;;;5013819;28;20224;-76
2022/05/02 03:27:07;;;;;;;25.90;19.70;;;6.80;99.90;;;;;;5013936;28;20203;-75
2022/05/02 03:29:36;;;;;;;36.53;22.75;;;6.80;99.90;;;;;;5013472;28;20208;-74
2022/05/02 03:32:03;;;;;;;28.90;20.67;;;6.80;99.90;;;;;;5013703;28;20242;-74
2022/05/02 03:34:31;;;;;;;26.02;18.63;;;6.70;99.90;;;;;;4994877;28;20296;-75
2022/05/02 03:36:58;;;;;;;25.75;19.90;;;6.70;99.90;;;;;;5003594;28;20207;-74
2022/05/02 03:39:25;;;;;;;27.98;21.20;;;6.60;99.90;;;;;;5014921;28;20302;-75
2022/05/02 03:41:52;;;;;;;29.23;21.88;;;6.60;99.90;;;;;;5015332;28;20202;-74
2022/05/02 03:44:19;;;;;;;29.05;21.23;;;6.60;99.90;;;;;;5017097;28;20246;-74
2022/05/02 03:46:46;;;;;;;31.27;22.20;;;6.60;99.90;;;;;;5015851;28;20210;-75
2022/05/02 03:49:13;;;;;;;30.73;21.15;;;6.60;99.90;;;;;;5015996;28;20299;-74
2022/05/02 03:51:41;;;;;;;31.50;22.10;;;6.60;99.90;;;;;;5016990;28;20235;-74
2022/05/02 03:54:08;;;;;;;27.83;20.85;;;6.60;99.90;;;;;;5020197;28;20231;-74
2022/05/02 03:56:35;;;;;;;27.80;20.55;;;6.50;99.90;;;;;;5033862;28;20212;-74
2022/05/02 03:59:03;;;;;;;30.90;22.38;;;6.50;99.90;;;;;;5036452;28;20203;-74
2022/05/02 04:01:31;;;;;;;30.20;20.27;;;6.50;99.90;;;;;;5037571;28;20203;-75
2022/05/02 04:03:58;;;;;;;25.50;20.52;;;6.50;99.90;;;;;;5031486;28;20282;-74
2022/05/02 04:06:25;;;;;;;28.25;21.23;;;6.50;99.90;;;;;;5014129;28;20211;-73
2022/05/02 04:08:53;;;;;;;31.55;21.10;;;6.50;99.90;;;;;;5014775;28;20302;-74
2022/05/02 04:11:20;;;;;;;27.08;21.25;;;6.60;99.90;;;;;;5012678;28;20691;-74
2022/05/02 04:13:46;;;;;;;30.45;23.35;;;6.50;99.90;;;;;;5013310;28;20231;-73
2022/05/02 04:16:14;;;;;;;28.17;20.60;;;6.50;99.90;;;;;;5013923;28;20235;-77
2022/05/02 04:18:41;;;;;;;28.20;21.13;;;6.60;99.90;;;;;;5013803;28;20203;-76
2022/05/02 04:21:08;;;;;;;32.78;23.05;;;6.60;99.90;;;;;;5013980;28;20616;-74
2022/05/02 04:23:35;;;;;;;32.58;23.10;;;6.60;99.90;;;;;;5013434;28;20255;-74
2022/05/02 04:26:04;;;;;;;32.70;21.38;;;6.60;99.90;;;;;;5013521;28;20311;-74
2022/05/02 04:28:31;;;;;;;27.67;20.95;;;6.60;99.90;;;;;;5013718;28;20203;-76
2022/05/02 04:30:58;;;;;;;32.17;21.73;;;6.70;99.90;;;;;;5013906;28;20215;-74
2022/05/02 04:33:24;;;;;;;27.35;21.63;;;6.70;99.90;;;;;;5014728;28;20242;-74
2022/05/02 04:35:51;;;;;;;27.85;21.20;;;6.70;99.90;;;;;;5017696;28;20688;-75
2022/05/02 04:38:19;;;;;;;30.65;21.65;;;6.70;99.90;;;;;;5020030;28;20290;-74
2022/05/02 04:40:45;;;;;;;31.63;23.33;;;6.80;99.90;;;;;;5018045;28;20208;-74
2022/05/02 04:43:14;;;;;;;27.67;21.70;;;7.10;99.90;;;;;;5018836;28;20219;-74
2022/05/02 04:45:41;;;;;;;28.98;22.13;;;7.30;99.90;;;;;;5018146;28;20208;-75
2022/05/02 04:48:10;;;;;;;26.40;21.35;;;7.60;99.90;;;;;;5018702;28;20210;-75
2022/05/02 04:50:37;;;;;;;28.02;21.38;;;7.70;99.90;;;;;;5020356;28;20211;-74
2022/05/02 04:53:04;;;;;;;23.45;19.08;;;7.90;99.90;;;;;;5017706;28;20227;-74
2022/05/02 04:55:31;;;;;;;23.52;18.95;;;8.20;99.90;;;;;;5018125;28;20291;-75
2022/05/02 04:57:57;;;;;;;19.33;16.65;;;8.50;99.90;;;;;;5018366;28;20204;-74
2022/05/02 05:00:26;;;;;;;19.58;17.30;;;8.50;99.90;;;;;;5019489;28;20211;-75
2022/05/02 05:02:53;;;;;;;19.60;17.50;;;8.30;99.90;;;;;;5020968;28;20239;-74
2022/05/02 05:05:20;;;;;;;20.20;17.15;;;8.40;99.90;;;;;;5021620;28;20203;-75
2022/05/02 05:07:47;;;;;;;19.20;16.55;;;8.30;99.90;;;;;;5020943;28;20243;-74
2022/05/02 05:10:14;;;;;;;19.48;17.48;;;8.60;99.90;;;;;;5032606;28;20219;-74
2022/05/02 05:12:54;;;;;;;18.83;16.80;;;8.80;99.90;;;;;;5038361;28;20207;-74
2022/05/02 05:18:35;;;;;;;16.90;15.10;;;8.90;94.50;;;;;;5036815;28;20262;-73
2022/05/02 05:21:05;;;;;;;17.00;14.93;;;9.20;93.50;;;;;;5026163;28;20292;-74
2022/05/02 05:23:51;;;;;;;17.23;15.27;;;9.10;93.50;;;;;;5020333;28;20234;-75
2022/05/02 05:26:27;;;;;;;19.95;16.95;;;9.30;92.40;;;;;;5018122;28;20259;-75
2022/05/02 05:29:05;;;;;;;15.85;14.25;;;9.80;91.20;;;;;;5018025;28;20218;-76
2022/05/02 05:31:45;;;;;;;16.02;14.32;;;10.30;86.90;;;;;;5019102;28;20210;-75
2022/05/02 05:34:27;;;;;;;17.35;15.48;;;9.70;84.40;;;;;;5022038;28;20243;-76
2022/05/02 05:37:20;;;;;;;16.83;15.05;;;9.40;89.30;;;;;;5018629;28;20204;-76
2022/05/02 05:39:56;;;;;;;18.73;15.40;;;9.70;89.60;;;;;;5026340;28;20679;-75
2022/05/02 05:42:32;;;;;;;16.20;14.50;;;10.00;84.70;;;;;;5026280;28;20275;-74
2022/05/02 05:45:04;;;;;;;16.65;14.95;;;10.00;83.30;;;;;;5024363;28;20227;-75
2022/05/02 05:47:53;;;;;;;18.30;16.00;;;10.10;81.80;;;;;;5028835;28;20595;-76
2022/05/02 05:50:23;;;;;;;18.40;16.50;;;9.70;84.10;;;;;;5028734;28;20227;-75
2022/05/02 05:53:03;;;;;;;22.17;18.67;;;9.80;87.50;;;;;;5029533;28;20231;-75
2022/05/02 05:55:40;;;;;;;18.25;16.23;;;9.60;90.00;;;;;;5025201;28;20191;-76
2022/05/02 05:58:15;;;;;;;20.08;17.15;;;10.00;91.10;;;;;;5019527;28;20230;-76
2022/05/02 06:00:45;;;;;;;21.33;17.92;;;10.20;86.70;;;;;;5022733;28;20572;-74
2022/05/02 06:03:15;;;;;;;20.30;16.67;;;10.30;85.00;;;;;;5017494;28;20255;-76
2022/05/02 06:05:44;;;;;;;18.13;16.10;;;10.70;88.60;;;;;;5017785;28;20216;-78
2022/05/02 06:08:14;;;;;;;18.65;16.63;;;11.50;81.20;;;;;;5017104;28;20235;-75
2022/05/02 06:10:42;;;;;;;19.45;17.35;;;11.50;73.40;;;;;;5016541;28;20214;-73
2022/05/02 06:13:10;;;;;;;22.60;16.80;;;11.80;74.40;;;;;;5017264;28;20239;-77
2022/05/02 06:18:30;;;;;;;20.35;17.70;;;11.60;71.60;;;;;;5016747;28;20625;-73
2022/05/02 06:20:59;;;;;;;18.35;16.52;;;11.80;71.60;;;;;;5015303;28;20211;-74
2022/05/02 06:23:28;;;;;;;18.33;16.15;;;11.60;73.70;;;;;;5016168;28;20282;-76
2022/05/02 06:25:56;;;;;;;20.40;17.45;;;11.70;73.50;;;;;;5015642;28;20295;-75
2022/05/02 06:28:30;;;;;;;19.73;17.23;;;11.50;74.30;;;;;;5015624;28;20211;-74
2022/05/02 06:31:01;;;;;;;21.70;17.50;;;11.40;75.90;;;;;;5015501;28;20231;-75
2022/05/02 06:33:30;;;;;;;23.90;18.33;;;11.20;80.30;;;;;;5015720;28;20243;-75
2022/05/02 06:36:12;;;;;;;19.98;17.42;;;11.60;77.70;;;;;;5015773;28;20211;-76
2022/05/02 06:38:50;;;;;;;21.75;19.27;;;11.30;78.10;;;;;;5016079;28;20243;-76
2022/05/02 06:41:27;;;;;;;32.72;20.98;;;10.80;82.30;;;;;;5015776;28;20218;-75
2022/05/02 06:44:03;;;;;;;25.30;19.63;;;10.90;84.70;;;;;;5018370;28;20335;-76
2022/05/02 06:46:41;;;;;;;23.35;18.73;;;11.00;84.50;;;;;;5017659;28;20294;-74
2022/05/02 06:49:13;;;;;;;23.25;19.30;;;11.00;85.60;;;;;;5017239;28;20207;-76
2022/05/02 06:51:42;;;;;;;23.50;19.13;;;11.20;83.90;;;;;;5016669;28;20208;-75
2022/05/02 06:54:42;;;;;;;26.35;19.92;;;11.30;81.70;;;;;;5017949;28;20236;-74
2022/05/02 06:57:18;;;;;;;25.58;20.40;;;11.10;81.90;;;;;;4977660;28;20216;-76
2022/05/02 06:59:53;;;;;;;23.45;20.00;;;11.10;83.60;;;;;;5020115;28;20204;-74
2022/05/02 07:02:46;;;;;;;23.55;21.15;;;11.30;81.50;;;;;;5020765;28;20191;-75
2022/05/02 07:05:25;;;;;;;21.85;19.55;;;11.20;81.60;;;;;;5020139;28;20294;-76
2022/05/02 07:08:00;;;;;;;20.08;17.95;;;11.30;81.70;;;;;;5022306;28;20676;-75
2022/05/02 07:10:32;;;;;;;20.52;17.75;;;11.50;79.50;;;;;;5033077;28;20214;-74
2022/05/02 07:13:08;;;;;;;19.75;17.65;;;11.60;77.70;;;;;;5035350;28;20239;-75
2022/05/02 07:15:44;;;;;;;19.83;17.83;;;11.70;77.90;;;;;;5037278;28;20234;-76
2022/05/02 07:18:43;;;;;;;19.33;17.30;;;11.80;78.00;;;;;;5035253;28;20227;-75
2022/05/02 07:21:30;;;;;;;22.00;18.63;;;12.10;76.80;;;;;;5019124;28;20208;-76
2022/05/02 07:24:13;;;;;;;19.40;17.23;;;12.20;73.40;;;;;;5026697;28;20207;-75
2022/05/02 07:26:42;;;;;;;19.95;17.80;;;12.00;75.80;;;;;;5024286;28;20302;-75
2022/05/02 07:29:11;;;;;;;18.80;16.90;;;12.00;76.40;;;;;;5023325;28;20203;-75
2022/05/02 07:31:40;;;;;;;20.30;18.20;;;11.80;78.60;;;;;;5028044;28;20307;-75
2022/05/02 07:34:08;;;;;;;19.85;17.73;;;12.10;78.00;;;;;;5024674;28;20231;-74
2022/05/02 07:36:39;;;;;;;20.08;17.92;;;12.20;74.70;;;;;;5015486;28;20246;-75
2022/05/02 07:39:07;;;;;;;18.42;16.30;;;12.30;76.10;;;;;;5015245;28;20269;-75
2022/05/02 07:41:36;;;;;;;19.13;17.10;;;12.50;75.20;;;;;;5018159;28;20207;-74
2022/05/02 07:44:05;;;;;;;18.23;16.00;;;12.40;73.10;;;;;;5017120;28;20307;-75
2022/05/02 07:46:36;;;;;;;18.85;16.83;;;12.60;73.90;;;;;;5015210;28;20203;-75
2022/05/02 07:49:04;;;;;;;19.38;17.35;;;12.40;74.10;;;;;;5013820;28;20641;-76
2022/05/02 07:51:33;;;;;;;20.27;18.27;;;12.30;76.90;;;;;;5013289;28;20519;-76
2022/05/02 07:54:02;;;;;;;21.58;19.00;;;12.40;75.30;;;;;;5021736;28;20227;-77
2022/05/02 07:56:32;;;;;;;22.80;17.92;;;12.70;74.60;;;;;;5013736;28;20242;-76
2022/05/02 07:59:00;;;;;;;20.73;18.55;;;12.90;72.90;;;;;;5014355;28;20203;-77
2022/05/02 08:01:27;;;;;;;19.65;17.55;;;13.10;70.40;;;;;;5014320;28;20230;-77
2022/05/02 08:03:54;;;;;;;20.38;18.27;;;13.10;70.90;;;;;;5014186;28;20234;-78
2022/05/02 08:06:38;;;;;;;18.63;16.13;;;13.30;70.00;;;;;;5017132;28;20218;-78
2022/05/02 08:09:20;;;;;;;20.55;17.17;;;13.30;70.50;;;;;;5014991;28;20211;-75
2022/05/02 08:11:52;;;;;;;19.25;17.25;;;13.20;70.00;;;;;;5017458;28;20203;-75
2022/05/02 08:14:26;;;;;;;19.27;16.27;;;13.20;72.70;;;;;;5018941;28;20235;-75
2022/05/02 08:17:02;;;;;;;18.90;17.02;;;13.60;67.00;;;;;;5020468;28;20204;-76
2022/05/02 08:19:44;;;;;;;17.75;16.05;;;13.30;70.50;;;;;;5016612;28;20207;-75
2022/05/02 08:28:03;;;;;;;17.95;16.02;;;13.50;67.60;;;;;;5005219;28;20226;-74
2022/05/02 08:30:34;;;;;;;16.80;14.90;;;14.00;65.20;;;;;;5017520;28;20591;-76
2022/05/02 08:33:04;;;;;;;17.20;15.47;;;14.40;62.70;;;;;;5017341;28;20212;-73
2022/05/02 08:35:46;;;;;;;18.63;15.37;;;14.50;61.00;;;;;;5014853;28;20873;-74
2022/05/02 08:38:34;;;;;;;16.00;14.50;;;14.50;60.10;;;;;;5014861;28;20436;-74
2022/05/02 08:41:34;;;;;;;17.00;14.03;;;14.70;59.40;;;;;;5013670;28;20455;-74
2022/05/02 08:44:28;;;;;;;15.77;14.20;;;14.80;58.70;;;;;;5013050;28;20452;-74
2022/05/02 08:47:35;;;;;;;15.17;13.63;;;14.60;59.00;;;;;;5013549;28;20990;-74
2022/05/02 08:50:19;;;;;;;15.60;14.20;;;14.90;58.30;;;;;;5016929;28;20410;-74
2022/05/02 08:53:28;;;;;;;15.10;13.60;;;15.50;54.40;;;;;;5016058;28;20718;-74
2022/05/02 08:56:18;;;;;;;15.13;13.73;;;15.50;54.40;;;;;;5026037;28;20436;-75
2022/05/02 08:59:33;;;;;;;16.83;14.00;;;15.40;54.30;;;;;;5022189;28;20405;-74
2022/05/02 09:02:33;;;;;;;14.50;13.10;;;15.40;55.70;;;;;;5019906;28;20461;-75
2022/05/02 09:05:39;;;;;;;15.23;13.63;;;15.60;55.10;;;;;;5014474;28;20949;-74
2022/05/02 09:09:00;;;;;;;14.40;13.00;;;16.20;52.60;;;;;;5014328;28;20429;-74
2022/05/02 09:12:09;;;;;;;14.70;13.30;;;16.50;50.90;;;;;;5014660;28;20443;-75
2022/05/02 09:14:59;;;;;;;15.53;13.10;;;16.40;51.00;;;;;;5014328;28;20544;-74
2022/05/02 09:17:59;;;;;;;16.70;13.83;;;16.30;50.90;;;;;;5015982;28;20511;-75
2022/05/02 09:20:58;;;;;;;14.50;12.97;;;16.00;51.30;;;;;;5013959;28;21124;-73
2022/05/02 09:24:02;;;;;;;13.17;11.47;;;15.90;51.50;;;;;;5016818;28;20457;-74
2022/05/02 09:27:11;;;;;;;14.47;13.07;;;16.00;51.60;;;;;;5016544;28;20787;-74
2022/05/02 09:30:17;;;;;;;14.73;13.40;;;16.20;51.00;;;;;;5015677;28;20528;-73
2022/05/02 09:33:12;;;;;;;16.20;14.60;;;15.80;52.60;;;;;;5015534;28;20429;-74
2022/05/02 09:35:47;;;;;;;13.13;11.93;;;15.60;52.90;;;;;;5016093;28;20522;-74
2022/05/02 09:38:24;;;;;;;18.07;13.00;;;15.90;51.50;;;;;;5016578;28;20933;-72
2022/05/02 09:40:59;;;;;;;15.43;13.87;;;15.90;51.40;;;;;;5016292;28;20454;-74
2022/05/02 09:49:50;;;;;;;15.67;14.20;;;16.10;51.40;;;;;;5015930;28;20966;-73
2022/05/02 09:52:25;;;;;;;15.13;13.60;;;16.10;50.30;;;;;;5015231;28;20480;-74
2022/05/02 09:58:04;;;;;;;15.67;13.70;;;16.10;49.30;;;;;;5015323;28;20447;-73
2022/05/02 10:03:36;;;;;;;14.53;13.13;;;16.50;48.50;;;;;;5015227;28;20585;-73
2022/05/02 10:06:08;;;;;;;14.03;12.63;;;16.90;47.20;;;;;;5016805;28;20414;-73
2022/05/02 10:09:03;;;;;;;14.30;12.90;;;17.00;48.00;;;;;;5017614;28;20478;-74
2022/05/02 10:11:50;;;;;;;14.37;13.07;;;17.20;46.70;;;;;;4999560;28;20439;-75
2022/05/02 10:14:35;;;;;;;14.60;12.67;;;17.30;45.00;;;;;;5016621;28;20862;-73
2022/05/02 10:17:06;;;;;;;13.20;11.83;;;17.30;46.30;;;;;;5017145;28;20520;-72
2022/05/02 10:20:03;;;;;;;14.27;12.97;;;17.40;46.10;;;;;;5015567;28;20433;-74
2022/05/02 10:22:37;;;;;;;14.27;12.57;;;17.10;46.10;;;;;;5015452;28;20505;-74
2022/05/02 10:25:12;;;;;;;15.07;13.57;;;17.10;46.10;;;;;;5015531;28;20800;-74
2022/05/02 10:28:05;;;;;;;16.37;11.80;;;16.80;45.80;;;;;;5014524;28;20413;-74
2022/05/02 10:30:44;;;;;;;14.27;12.97;;;17.10;46.10;;;;;;5014476;28;20545;-75
2022/05/02 10:33:15;;;;;;;13.50;12.17;;;16.90;45.10;;;;;;5014157;28;20528;-75
2022/05/02 10:35:47;;;;;;;13.07;11.43;;;17.30;43.40;;;;;;5014601;28;20433;-74
2022/05/02 10:38:20;;;;;;;12.73;11.53;;;17.60;42.90;;;;;;5015305;28;20522;-74
2022/05/02 10:40:51;;;;;;;12.87;10.70;;;17.80;42.90;;;;;;5014246;28;20429;-74
2022/05/02 10:43:25;;;;;;;13.53;12.33;;;17.80;43.30;;;;;;5015331;28;20441;-75
2022/05/02 10:45:53;;;;;;;12.20;10.90;;;17.90;41.90;;;;;;5015856;28;20866;-74
2022/05/02 10:48:41;;;;;;;12.70;11.57;;;17.60;43.80;;;;;;5014847;28;20436;-75
2022/05/02 10:51:13;;;;;;;14.73;12.20;;;18.00;42.90;;;;;;5015592;28;20437;-74
2022/05/02 10:54:03;;;;;;;13.90;12.53;;;18.60;41.10;;;;;;5015422;28;20573;-75
2022/05/02 10:56:36;;;;;;;21.63;12.07;;;18.40;40.80;;;;;;5012888;28;20433;-76
2022/05/02 10:59:05;;;;;;;12.97;11.67;;;18.30;41.40;;;;;;5011513;28;20465;-76
2022/05/02 11:02:08;;;;;;;12.50;11.30;;;18.60;40.70;;;;;;5022933;28;20552;-76
2022/05/02 11:04:58;;;;;;;14.57;11.80;;;18.20;39.70;;;;;;4933059;28;20537;-75
2022/05/02 11:07:28;;;;;;;11.40;10.30;;;18.00;39.50;;;;;;5014450;28;20465;-75
2022/05/02 11:10:05;;;;;;;12.83;11.47;;;18.20;40.50;;;;;;5015071;28;20935;-75
2022/05/02 11:12:37;;;;;;;16.70;11.77;;;18.30;39.30;;;;;;5019072;28;20549;-73
2022/05/02 11:15:06;;;;;;;12.03;10.77;;;18.40;39.90;;;;;;5015107;28;20644;-76
2022/05/02 11:17:51;;;;;;;13.73;12.50;;;18.10;40.40;;;;;;5015993;28;20429;-74
2022/05/02 11:23:32;;;;;;;13.13;11.83;;;18.90;38.40;;;;;;5035167;28;20539;-74
2022/05/02 11:26:14;;;;;;;13.63;11.67;;;18.50;38.60;;;;;;5017182;28;20419;-73
2022/05/02 11:29:14;;;;;;;13.97;12.37;;;18.30;38.90;;;;;;5034369;28;20422;-73
2022/05/02 11:31:46;;;;;;;12.47;11.23;;;18.40;39.50;;;;;;5009409;28;20902;-74
2022/05/02 11:34:27;;;;;;;13.43;10.63;;;18.90;37.80;;;;;;5015443;28;20840;-76
2022/05/02 11:36:58;;;;;;;11.13;10.03;;;19.20;38.10;;;;;;5014626;28;20432;-74
2022/05/02 11:39:36;;;;;;;12.93;10.47;;;19.30;38.10;;;;;;5012904;28;20433;-74
2022/05/02 11:42:10;;;;;;;11.30;10.20;;;19.40;38.20;;;;;;5024293;28;20774;-75
2022/05/02 11:44:47;;;;;;;10.63;9.60;;;19.70;38.00;;;;;;5014986;28;20452;-75
2022/05/02 11:47:20;;;;;;;12.80;9.97;;;20.30;36.20;;;;;;5013093;28;20553;-76
2022/05/02 11:50:05;;;;;;;12.63;11.47;;;19.70;37.50;;;;;;5015718;28;20461;-75
2022/05/02 11:52:35;;;;;;;12.00;10.90;;;19.40;38.00;;;;;;5021207;28;20467;-75
2022/05/02 11:55:02;;;;;;;11.20;10.20;;;19.40;38.20;;;;;;5018326;28;20461;-75
2022/05/02 11:57:36;;;;;;;14.53;11.00;;;19.60;36.60;;;;;;5014865;28;20454;-73
2022/05/02 12:00:07;;;;;;;11.13;10.00;;;19.50;38.10;;;;;;5014447;28;20513;-74
2022/05/02 12:02:51;;;;;;;10.20;9.20;;;19.60;37.60;;;;;;5019095;28;20461;-74
2022/05/02 12:05:28;;;;;;;10.33;9.33;;;19.60;37.70;;;;;;5019889;28;20887;-73
2022/05/02 12:07:56;;;;;;;10.43;9.50;;;19.40;36.00;;;;;;5021149;28;20820;-74
2022/05/02 12:10:33;;;;;;;10.20;9.30;;;19.10;36.90;;;;;;5015151;28;20505;-74
2022/05/02 12:13:01;;;;;;;10.30;9.27;;;19.10;36.40;;;;;;5013153;28;20429;-75
2022/05/02 12:15:29;;;;;;;11.70;10.20;;;19.70;35.40;;;;;;5013937;28;21028;-74
2022/05/02 12:17:59;;;;;;;8.70;8.00;;;19.70;33.90;;;;;;4999435;28;20919;-74
2022/05/02 12:20:29;;;;;;;11.20;8.87;;;20.00;34.00;;;;;;4993415;28;20518;-74
2022/05/02 12:23:00;;;;;;;10.07;8.73;;;19.90;33.50;;;;;;4995914;28;20434;-74
2022/05/02 12:25:29;;;;;;;10.50;9.27;;;19.40;33.90;;;;;;4995035;28;20539;-76
2022/05/02 12:27:57;;;;;;;10.00;9.00;;;19.40;34.90;;;;;;4995305;28;20493;-75
2022/05/02 12:30:28;;;;;;;9.97;8.60;;;19.80;34.70;;;;;;4998609;28;21026;-76
2022/05/02 12:33:00;;;;;;;10.93;9.83;;;19.80;34.40;;;;;;4996179;28;20965;-76
2022/05/02 12:35:35;;;;;;;9.13;8.43;;;19.80;34.10;;;;;;4996527;28;21011;-75
2022/05/02 12:38:12;;;;;;;10.40;9.03;;;20.40;32.70;;;;;;4997090;28;20482;-75
2022/05/02 12:40:41;;;;;;;8.67;7.87;;;20.70;32.60;;;;;;4997526;28;20443;-75
2022/05/02 12:43:11;;;;;;;8.67;7.87;;;20.50;33.90;;;;;;4996822;28;20438;-75
2022/05/02 12:45:47;;;;;;;13.83;9.30;;;19.80;35.40;;;;;;4996508;28;20426;-75
2022/05/02 12:48:23;;;;;;;9.30;8.40;;;20.00;33.90;;;;;;4996712;28;20517;-75
2022/05/02 12:50:51;;;;;;;9.97;9.00;;;20.60;33.90;;;;;;4995420;28;20882;-75
2022/05/02 12:56:08;;;;;;;10.63;9.63;;;20.50;33.30;;;;;;4999510;28;20427;-74
2022/05/02 13:01:24;;;;;;;10.70;9.17;;;20.00;34.40;;;;;;4998741;28;20918;-73
2022/05/02 13:03:56;;;;;;;12.23;8.80;;;20.00;34.30;;;;;;4999344;28;20881;-73
2022/05/02 13:06:23;;;;;;;9.20;8.30;;;19.90;33.90;;;;;;5001770;28;20451;-74
2022/05/02 13:08:50;;;;;;;9.90;9.00;;;19.70;34.50;;;;;;5000267;28;20430;-73
2022/05/02 13:11:21;;;;;;;10.80;9.70;;;19.70;34.40;;;;;;5000768;28;20961;-74
2022/05/02 13:13:52;;;;;;;12.27;9.37;;;19.90;34.10;;;;;;4999238;28;20514;-74
2022/05/02 13:16:31;;;;;;;8.27;7.57;;;20.40;33.10;;;;;;4999948;28;20416;-73
2022/05/02 13:19:00;;;;;;;12.50;8.43;;;20.50;30.90;;;;;;5000430;28;20457;-73
2022/05/02 13:21:28;;;;;;;9.10;8.30;;;20.30;31.30;;;;;;5005864;28;20471;-75
2022/05/02 13:24:00;;;;;;;7.80;7.10;;;20.10;31.80;;;;;;4997730;28;20554;-74
2022/05/02 13:26:48;;;;;;;8.37;7.57;;;20.20;31.40;;;;;;4999307;28;20491;-74
2022/05/02 13:29:35;;;;;;;9.33;7.27;;;20.50;30.00;;;;;;4999992;28;20486;-75
2022/05/02 13:32:05;;;;;;;8.27;7.37;;;21.10;29.70;;;;;;5001962;28;20438;-74
2022/05/02 13:34:43;;;;;;;8.00;7.30;;;21.20;29.80;;;;;;5007554;28;20471;-74
2022/05/02 13:37:17;;;;;;;7.80;7.00;;;21.10;30.80;;;;;;5008440;28;20435;-74
2022/05/02 13:39:52;;;;;;;8.40;7.60;;;21.30;31.10;;;;;;5000146;28;20436;-76
2022/05/02 13:42:36;;;;;;;11.67;8.00;;;21.80;30.10;;;;;;5000055;28;20442;-75
2022/05/02 13:45:06;;;;;;;8.43;7.60;;;21.00;31.00;;;;;;5002664;28;20464;-75